NCAR-RAP Real-Time Weather Data

Output produced by METARs form (18 August 2018  01:02 UTC)
found at http://weather.rap.ucar.edu/surface/
 
RJOH 180000Z 08006KT 050V120 9999 FEW040 BKN250 25/12 Q1013
RJOH 172300Z VRB02KT 9999 FEW040 BKN250 23/12 Q1013
RJOH 172200Z 19003KT 160V220 9999 FEW040 BKN250 20/14 Q1013
RJOH 172100Z VRB02KT 9999 FEW040 SCT250 17/14 Q1012
RJOH 172000Z 15003KT 9999 FEW050 18/14 Q1012
RJOH 171900Z 14006KT 070V200 9999 FEW050 18/14 Q1012
RJOH 171800Z 08013KT 9999 FEW050 22/12 Q1012
RJOH 171700Z 08012KT 9999 FEW050 23/13 Q1012
RJOH 171600Z 09010KT 9999 FEW050 22/13 Q1012
RJOH 171500Z 09013G23KT 9999 FEW035 SCT050 23/13 Q1012
RJOH 171400Z 07019KT 9999 FEW035 SCT050 24/13 Q1013
RJOH 171300Z 07017KT 9999 FEW030 SCT050 24/14 Q1013
RJOH 171200Z 07017KT 9999 FEW030 SCT050 24/14 Q1012
RJOH 171100Z 07017KT 9999 FEW030 SCT050 24/13 Q1012
RJOH 171000Z 07016KT 9999 FEW030 SCT050 24/11 Q1012
RJOH 170900Z 06015KT 9999 FEW030 SCT050 25/12 Q1012
RJOH 170800Z 06017KT 9999 FEW030 SCT050 26/11 Q1012
RJOH 170700Z 05018KT 9999 FEW030 SCT035 26/12 Q1012
RJOH 170600Z 05017KT 9999 FEW030 SCT035 27/14 Q1012
RJOH 170500Z 06017KT 9999 FEW030 SCT035 BKN300 27/12 Q1012
RJOH 170400Z 06017KT 9999 FEW030 SCT035 BKN300 28/14 Q1013
RJOH 170300Z 05016KT 9999 FEW030 SCT035 BKN300 27/14 Q1013
RJOH 170200Z 05015KT 9999 FEW030 BKN035 26/15 Q1013
RJOH 170100Z 05015KT 9999 FEW035 27/14 Q1013
RJOH 170000Z 05015KT 9999 FEW035 26/15 Q1013
RJOH 162300Z 05015KT 9999 FEW035 26/15 Q1013
RJOH 162200Z 04013KT 9999 FEW035 25/14 Q1013
RJOH 162100Z 04013KT 9999 FEW035 SCT050 24/15 Q1013
RJOH 162000Z 03011KT 9999 -SHRA FEW030 BKN035 BKN050 24/16 Q1012
RJOH 161900Z 03007KT 9999 FEW030 SCT050 24/14 Q1012
RJOH 161800Z 04010KT 9999 FEW050 SCT/// 24/14 Q1012
RJOH 161700Z 03011KT 9999 FEW030 SCT050 24/13 Q1012
RJOH 161600Z 04012KT 9999 FEW030 BKN050 BKN/// 25/16 Q1012
RJOH 161500Z 03011KT 9999 FEW030 BKN050 BKN/// 25/16 Q1013
RJOH 161400Z 03011KT 9999 FEW020 SCT035 BKN050 25/16 Q1013
RJOH 161300Z 03013KT 9999 FEW020 SCT035 BKN050 25/17 Q1013
RJOH 161200Z 02012KT 9999 FEW020 BKN035 BKN050 26/18 Q1012
RJOH 161100Z 02011KT 9999 FEW015 BKN035 26/18 Q1012
RJOH 161000Z 01007KT 9999 -SHRA FEW010 SCT015 BKN020 26/21 Q1011
RJOH 160900Z 02005KT 9999 FEW015 SCT035 BKN080 27/20 Q1010
RJOH 160800Z 01007KT 9999 FEW015 BKN035 BKN250 27/20 Q1009
RJOH 160700Z 34008KT 9999 FEW015 BKN030 BKN250 28/21 Q1009
RJOH 160600Z 32011KT 9999 FEW015 SCT025 BKN250 28/21 Q1008
RJOH 160500Z 28011KT 9999 FEW015 SCT025 BKN250 30/22 Q1009
RJOH 160400Z 25013KT 9999 VCSH FEW015 SCT030 BKN050 28/23 Q1008
RJOH 160300Z 27017KT 9999 -SHRA FEW008 SCT015 BKN030 FEW030CB 27/23 Q1008 RETS
RJOH 160200Z 26011KT 9999 -SHRA FEW008 BKN030 FEW030CB BKN050 27/24 Q1008
RJOH 160100Z 31004KT 9999 -RA FEW008 SCT050 BKN080 27/24 Q1008
RJOH 160000Z 22007KT 9999 -RA FEW030 BKN080 OVC150 27/23 Q1007
RJOH 152300Z 23004KT 9999 -RA FEW030 BKN080 BKN150 27/23 Q1007
RJOH 152200Z VRB02KT 9999 -RA FEW030 BKN080 BKN150 27/24 Q1007
RJOH 152100Z 18004KT 9999 -RA FEW005 BKN080 BKN150 26/23 Q1006
RJOH 152000Z 25004KT 9999 -RA FEW030 SCT080 BKN100 26/23 Q1007
RJOH 151900Z VRB01KT 9999 -RA FEW030 SCT100 OVC150 26/23 Q1007
RJOH 151800Z 25006KT 9999 -RA FEW030 SCT050 BKN100 26/23 Q1008
RJOH 151700Z 18007KT 9999 -RA FEW030 SCT050 BKN100 28/21 Q1008
RJOH 151600Z 16008KT 9999 FEW030 SCT100 BKN120 28/21 Q1008
RJOH 151500Z 19007KT 9999 FEW030 SCT120 BKN160 28/21 Q1008
RJOH 151400Z 17007KT 140V200 9999 FEW030 BKN120 28/21 Q1009